Portada
METAR-TAF:

METAR-TAF

Aeropuertos :

Padua, Italia

latitud: 45-23-45N, longitud: 11-50-53E, altitud: 13 m

Observación

El informe se hizo hace 6 horas y 54 minutos, a las 06:00 UTC
Viento 1 kt con dirección variable
Temperatura 7°C
Humedad 76%
Presión 1020 hPa
Visibilidad: 5000 m
neblina

METAR: LIPU 040600Z VRB01KT 5000 BR NSC 07/03 Q1020

Hora: 14:54 (12:54 UTC)


TAF: falta

Observaciones y pronósticos meteorológicos de más de 4000 aeropuertos (mensajes METAR y TAF).

Los puntos amarillos y rojos representan las estaciones disponibles.

Ponga el ratón en el punto deseado para ver el nombre de la estación.

Haga clic para ver las observaciones y los pronósticos meteorológicos.

Para cambiar el mapa : haga clic en los botones verdes con una cruz de color negro para hacer un zoom, en el botón verde con un guión para alejar o en las flechas verdes para mapas adyacentes.


METAR-TAF: